الصفحة الرئيسية
METAR-TAF:

METAR-TAF

مطار :

أنتاناناريفو, مدغشقر

دائرة عرض: 18-48S, خط طول: 047-29E, ارتفاع: 1279 متر

مراقبة الطقس الحالي

تاريخ ووقت الإصدار 23 دقيقة قبل الساعة 07:00UTC
ريح 3 عقدةمن اتجاهات متغيرة
درجة الحرارة 28°درجة مئوية
الرطوبة 55%
ضغط 1020 hPa
الرؤية 10 كم أو أكثر
غيوم متفرقة على ارتفاع 1700 قدم

METAR: FMMI 110700Z VRB03KT 9999 SCT017 28/18 Q1020 NOSIG

زمن: 10:23 (07:23 UTC)

توقعات

تاريخ ووقت الإصدار 2ساعات و 23 دقيقة قبل الساعة 05:00UTC
التوقعات صالحة من11 الساعة 06 UTC إلى 12 الساعة 12 UTC
ريح 5 عقدةمن اتجاهات متغيرة
الرؤية 10 كم أو أكثر
غيوم متفرقة على ارتفاع 2000 قدم
أصبح
من 11 الساعة 07 UTC إلى 11 الساعة 10 UTC
غيوم متفرقة على ارتفاع 2000 قدم, مزنة ركامية.
نظرية الاحتمالات 40% :
مؤقت
من 11 الساعة 11 UTC إلى 11 الساعة 20 UTC
ريح 15 عقدةمن اتجاهات متغيرة
الرؤية: 4000 متر
عاصفة رعدية, مطر
أصبح
من 11 الساعة 20 UTC إلى 11 الساعة 22 UTC
غيوم متفرقة على ارتفاع 2000 قدم

TAF: FMMI 110500Z 1106/1212 VRB05KT 9999 SCT020 BECMG 1107/1110 SCT020CB PROB40 TEMPO 1111/1120 VRB15KT 4000 TSRA BECMG 1120/1122 SCT020

أرصاد الطقس والتوقعات من أكثر من 4000 مطار (تقارير الطقس للمطار METAR والتنبؤ بالطقس بالمطارTAF).

المحطات المتاحة هي النقط الصفراء والحمراء على الخريطة.

حرك المؤشر فوق النقطة لمعرفة اسم المحطة.

ثم انقر لمعرفة أرصاد وتوقعات الطقس.

لتغيير الخارطة: اضغط على الأزرار الخضراء مع رمز الصليب الأسود للتكبير. على الزر الأخضر مع شرطة للتصغير، أو على الأسهم الخضراء للخرائط المجاورة.


METAR-TAF: